createdAt,value
2023-02-23T00:02:24.541Z,8.80
2023-02-23T00:07:55.720Z,8.80
2023-02-23T00:13:55.792Z,8.80
2023-02-23T00:19:28.187Z,8.80
2023-02-23T00:30:31.967Z,8.80
2023-02-23T00:35:59.646Z,8.80
2023-02-23T00:41:28.835Z,8.70
2023-02-23T00:47:11.135Z,8.60
2023-02-23T00:52:19.973Z,8.60
2023-02-23T00:57:46.801Z,8.60
2023-02-23T01:03:15.632Z,8.60
2023-02-23T01:08:57.411Z,8.60
2023-02-23T01:20:09.708Z,8.50
2023-02-23T01:25:37.523Z,8.50
2023-02-23T01:30:54.571Z,8.40
2023-02-23T01:42:04.575Z,8.40
2023-02-23T01:53:37.229Z,8.40
2023-02-23T03:03:12.853Z,8.00
2023-02-23T03:15:25.039Z,8.10
2023-02-23T03:33:31.203Z,8.00
2023-02-23T03:39:03.529Z,7.90
2023-02-23T03:44:33.493Z,7.90
2023-02-23T03:49:56.505Z,7.90
2023-02-23T03:55:40.634Z,7.90
2023-02-23T04:01:14.688Z,7.90
2023-02-23T04:07:04.400Z,7.90
2023-02-23T04:12:55.589Z,8.00
2023-02-23T04:18:28.505Z,7.90
2023-02-23T04:24:13.062Z,7.90
2023-02-23T04:29:43.178Z,7.90
2023-02-23T04:35:04.548Z,7.90
2023-02-23T04:40:46.522Z,8.00
2023-02-23T04:46:49.152Z,7.90
2023-02-23T04:52:45.412Z,7.90
2023-02-23T04:58:24.330Z,7.90
2023-02-23T05:03:48.548Z,7.90
2023-02-23T05:09:16.733Z,7.90
2023-02-23T05:14:32.137Z,7.90
2023-02-23T05:25:41.180Z,7.90
2023-02-23T05:31:00.340Z,7.90
2023-02-23T05:36:25.527Z,7.90
2023-02-23T05:41:39.519Z,7.90
2023-02-23T05:52:14.769Z,7.90
2023-02-23T05:57:16.707Z,7.80
2023-02-23T06:02:18.546Z,7.80
2023-02-23T06:07:20.475Z,7.80
2023-02-23T06:12:23.836Z,7.80
2023-02-23T06:17:25.690Z,7.80
2023-02-23T06:22:27.917Z,7.80
2023-02-23T06:27:29.772Z,7.80
2023-02-23T06:32:31.741Z,7.90
2023-02-23T06:37:34.282Z,7.80
2023-02-23T06:42:36.436Z,7.80
2023-02-23T06:47:38.465Z,7.80
2023-02-23T06:52:40.669Z,7.70
2023-02-23T06:57:44.093Z,7.70
2023-02-23T07:02:46.058Z,7.70
2023-02-23T07:07:48.070Z,7.60
2023-02-23T07:12:49.951Z,7.70
2023-02-23T07:17:52.851Z,7.60
2023-02-23T07:22:54.945Z,7.60
2023-02-23T07:27:58.979Z,7.70
2023-02-23T07:33:00.864Z,7.70
2023-02-23T07:38:02.772Z,7.70
2023-02-23T07:43:04.623Z,7.70
2023-02-23T07:48:06.722Z,7.70
2023-02-23T07:53:08.640Z,7.80
2023-02-23T07:58:10.571Z,7.80
2023-02-23T08:03:12.362Z,7.90
2023-02-23T08:08:14.326Z,7.90
2023-02-23T08:13:16.667Z,7.90
2023-02-23T08:18:18.563Z,7.90
2023-02-23T08:23:20.416Z,8.00
2023-02-23T08:28:22.587Z,8.10
2023-02-23T08:33:24.476Z,8.10
2023-02-23T08:38:26.351Z,8.10
2023-02-23T08:43:28.678Z,8.10
2023-02-23T08:48:30.517Z,8.20
2023-02-23T08:53:32.373Z,8.20
2023-02-23T08:58:35.685Z,8.20
2023-02-23T09:03:40.213Z,8.30
2023-02-23T09:08:42.638Z,8.20
2023-02-23T09:13:44.832Z,8.30
2023-02-23T09:18:46.744Z,8.30
2023-02-23T09:23:51.211Z,8.40
2023-02-23T09:28:53.084Z,8.50
2023-02-23T09:33:55.044Z,8.50
2023-02-23T09:38:57.744Z,8.40
2023-02-23T09:44:03.055Z,8.40
2023-02-23T09:49:06.518Z,8.40
2023-02-23T09:54:11.652Z,8.50
2023-02-23T09:59:16.035Z,8.50
2023-02-23T10:04:24.276Z,8.60
2023-02-23T10:09:38.621Z,8.60
2023-02-23T10:14:53.002Z,8.70
2023-02-23T10:20:13.509Z,8.70
2023-02-23T10:25:24.103Z,8.80
2023-02-23T10:30:29.292Z,8.80
2023-02-23T10:35:32.189Z,8.90
2023-02-23T10:40:34.332Z,9.00
2023-02-23T10:45:41.835Z,9.00
2023-02-23T10:50:45.929Z,9.10
2023-02-23T10:56:00.849Z,9.20
2023-02-23T11:01:04.824Z,9.10
2023-02-23T11:06:07.166Z,9.10
2023-02-23T11:11:15.814Z,9.10
2023-02-23T11:16:17.754Z,9.20
2023-02-23T11:21:40.175Z,9.30
2023-02-23T11:26:43.976Z,9.40
2023-02-23T11:31:52.513Z,9.50
2023-02-23T11:37:13.434Z,9.50
2023-02-23T11:42:19.506Z,9.50
2023-02-23T11:47:22.894Z,9.50
2023-02-23T11:52:25.736Z,9.40
2023-02-23T11:57:33.809Z,9.40
2023-02-23T12:02:52.051Z,9.50
2023-02-23T12:08:07.222Z,9.60
2023-02-23T12:13:24.830Z,9.50
2023-02-23T12:18:50.012Z,9.50
2023-02-23T12:23:58.924Z,9.60
2023-02-23T12:29:08.919Z,9.70
2023-02-23T12:34:32.205Z,9.80
2023-02-23T12:39:40.710Z,9.90
2023-02-23T12:45:14.047Z,9.90
2023-02-23T12:50:33.856Z,9.90
2023-02-23T12:55:47.201Z,9.90
2023-02-23T13:00:55.774Z,9.80
2023-02-23T13:06:20.710Z,9.70
2023-02-23T13:11:28.657Z,9.70
2023-02-23T13:16:34.827Z,9.50
2023-02-23T13:21:54.083Z,9.40
2023-02-23T13:27:21.741Z,9.40
2023-02-23T13:32:31.276Z,9.30
2023-02-23T13:37:43.287Z,9.30
2023-02-23T13:43:03.155Z,9.20
2023-02-23T13:48:18.271Z,9.20
2023-02-23T13:53:44.062Z,9.10
2023-02-23T13:58:49.061Z,9.20
2023-02-23T14:03:58.257Z,9.20
2023-02-23T14:09:24.361Z,9.20
2023-02-23T14:14:33.002Z,9.20
2023-02-23T14:19:40.243Z,9.30
2023-02-23T14:24:42.057Z,9.30
2023-02-23T14:30:05.772Z,9.30
2023-02-23T14:35:33.049Z,9.30
2023-02-23T14:40:40.103Z,9.30
2023-02-23T14:45:42.117Z,9.30
2023-02-23T14:50:44.328Z,9.20
2023-02-23T14:55:46.508Z,9.30
2023-02-23T15:00:49.295Z,9.30
2023-02-23T15:05:57.662Z,9.30
2023-02-23T15:11:19.789Z,9.40
2023-02-23T15:16:28.175Z,9.40
2023-02-23T15:21:30.398Z,9.40
2023-02-23T15:26:37.607Z,9.40
2023-02-23T15:31:40.983Z,9.50
2023-02-23T15:36:47.180Z,9.50
2023-02-23T15:41:49.647Z,9.50
2023-02-23T15:46:55.956Z,9.50
2023-02-23T15:52:03.249Z,9.50
2023-02-23T15:57:15.808Z,9.50
2023-02-23T16:02:19.676Z,9.50
2023-02-23T16:07:22.678Z,9.50
2023-02-23T16:12:36.043Z,9.50
2023-02-23T16:17:43.889Z,9.50
2023-02-23T16:22:46.288Z,9.40
2023-02-23T16:27:57.793Z,9.40
2023-02-23T16:33:25.114Z,9.40
2023-02-23T16:38:33.482Z,9.40
2023-02-23T16:43:35.413Z,9.30
2023-02-23T16:48:37.290Z,9.30
2023-02-23T16:53:40.721Z,9.20
2023-02-23T16:58:46.714Z,9.20
2023-02-23T17:09:12.613Z,9.20
2023-02-23T17:14:25.416Z,9.10
2023-02-23T17:19:27.385Z,9.00
2023-02-23T17:24:31.729Z,9.00
2023-02-23T17:29:56.307Z,9.00
2023-02-23T17:35:25.803Z,9.00
2023-02-23T17:40:52.532Z,9.10
2023-02-23T18:11:20.654Z,8.60
2023-02-23T18:16:42.857Z,8.50
2023-02-23T18:28:42.822Z,8.40
2023-02-23T18:53:24.794Z,7.90
2023-02-23T19:17:34.432Z,7.50
2023-02-23T19:22:46.080Z,7.40
2023-02-23T19:34:17.827Z,7.20
2023-02-23T19:50:49.672Z,7.10
2023-02-23T19:56:28.618Z,7.00
2023-02-23T20:02:55.905Z,7.00
2023-02-23T20:14:59.041Z,6.90
2023-02-23T20:32:23.927Z,6.80
2023-02-23T20:56:21.051Z,6.50
2023-02-23T21:02:04.462Z,6.50
2023-02-23T21:07:41.437Z,6.40
2023-02-23T21:48:16.340Z,6.10
2023-02-23T21:53:55.601Z,5.90
2023-02-23T22:22:04.883Z,5.50
2023-02-23T22:27:46.906Z,5.40
2023-02-23T22:39:14.697Z,5.30
2023-02-23T22:50:24.942Z,5.20
2023-02-23T22:55:52.991Z,5.10
2023-02-23T23:01:09.713Z,5.10
2023-02-23T23:07:02.926Z,5.10
2023-02-23T23:12:34.801Z,5.00
2023-02-23T23:20:07.921Z,4.90
2023-02-23T23:24:04.522Z,4.80
2023-02-23T23:30:27.783Z,4.70
2023-02-23T23:41:22.875Z,4.70
2023-02-23T23:46:57.044Z,4.70
2023-02-23T23:57:26.207Z,4.50
